createdAt,value
2023-04-22T00:00:00.983Z,0.00
2023-04-22T00:10:01.041Z,0.00
2023-04-22T00:20:01.818Z,0.00
2023-04-22T00:30:01.076Z,0.00
2023-04-22T00:40:01.306Z,0.00
2023-04-22T00:50:01.406Z,0.00
2023-04-22T01:00:01.847Z,0.00
2023-04-22T01:10:01.327Z,0.00
2023-04-22T01:20:01.036Z,0.00
2023-04-22T01:30:01.508Z,0.00
2023-04-22T01:40:01.012Z,0.00
2023-04-22T01:50:01.766Z,0.00
2023-04-22T02:00:01.838Z,0.00
2023-04-22T02:10:01.535Z,0.00
2023-04-22T02:20:01.166Z,0.00
2023-04-22T02:30:01.270Z,0.00
2023-04-22T02:40:01.963Z,0.00
2023-04-22T02:50:01.059Z,0.00
2023-04-22T03:00:02.069Z,0.00
2023-04-22T03:10:01.350Z,0.00
2023-04-22T03:20:01.853Z,0.34
2023-04-22T03:30:01.535Z,2.38
2023-04-22T03:40:01.997Z,12.68
2023-04-22T03:50:01.780Z,53.33
2023-04-22T04:00:01.019Z,68.33
2023-04-22T04:10:01.058Z,141.67
2023-04-22T04:20:00.999Z,228.33
2023-04-22T04:40:01.480Z,411.67
2023-04-22T04:50:00.285Z,493.33
2023-04-22T05:00:01.345Z,571.67
2023-04-22T05:10:01.313Z,640.00
2023-04-22T05:20:02.054Z,1393.33
2023-04-22T05:40:01.061Z,1601.25
2023-04-22T05:50:01.067Z,840.00
2023-04-22T06:00:01.081Z,1767.92
2023-04-22T06:10:04.909Z,923.33
2023-04-22T06:20:01.156Z,1936.25
2023-04-22T06:30:01.199Z,2029.17
2023-04-22T06:40:00.988Z,1053.33
2023-04-22T06:50:00.988Z,2227.08
2023-04-22T07:00:01.176Z,2244.58
2023-04-22T07:10:01.111Z,2247.50
2023-04-22T07:20:01.204Z,2288.75
2023-04-22T07:30:01.215Z,2323.75
2023-04-22T07:40:01.222Z,1195.00
2023-04-22T07:50:01.749Z,1250.00
2023-04-22T08:00:01.086Z,2565.42
2023-04-22T08:10:01.815Z,1300.00
2023-04-22T08:20:01.319Z,2669.58
2023-04-22T08:30:01.872Z,2722.08
2023-04-22T08:40:01.477Z,1403.33
2023-04-22T08:50:01.084Z,2904.17
2023-04-22T09:00:01.321Z,2954.17
2023-04-22T09:10:01.343Z,3055.42
2023-04-22T09:20:01.539Z,3165.42
2023-04-22T09:30:01.536Z,3258.75
2023-04-22T09:40:01.291Z,3393.75
2023-04-22T09:50:01.339Z,3491.25
2023-04-22T10:00:01.704Z,3575.42
2023-04-22T10:10:02.197Z,3691.67
2023-04-22T10:20:03.322Z,3846.25
2023-04-22T10:30:01.329Z,4015.00
2023-04-22T10:40:02.358Z,31437.50
2023-04-22T10:50:01.048Z,32473.33
2023-04-22T11:00:01.188Z,32450.00
2023-04-22T11:10:01.042Z,32961.67
2023-04-22T11:20:03.041Z,33386.67
2023-04-22T11:30:04.592Z,33900.83
2023-04-22T11:50:01.536Z,34560.83
2023-04-22T12:00:02.954Z,35134.17
2023-04-22T12:10:03.718Z,35199.17
2023-04-22T12:20:01.048Z,34925.00
2023-04-22T12:40:01.001Z,34745.83
2023-04-22T12:50:01.571Z,34428.33
2023-04-22T13:00:01.445Z,34340.00
2023-04-22T13:10:01.266Z,34290.83
2023-04-22T13:20:02.864Z,33391.67
2023-04-22T13:30:02.280Z,33006.67
2023-04-22T13:40:01.409Z,32462.50
2023-04-22T13:50:02.194Z,31812.50
2023-04-22T14:00:01.583Z,30910.83
2023-04-22T14:10:01.433Z,28784.17
2023-04-22T14:20:01.210Z,29086.67
2023-04-22T14:30:01.971Z,28200.00
2023-04-22T14:40:02.726Z,28533.33
2023-04-22T15:00:01.410Z,28710.00
2023-04-22T15:10:01.885Z,27101.25
2023-04-22T15:20:01.030Z,25651.25
2023-04-22T15:40:01.480Z,21297.92
2023-04-22T15:50:03.444Z,22273.75
2023-04-22T16:00:09.796Z,20915.42
2023-04-22T16:10:01.583Z,18151.67
2023-04-22T16:20:01.132Z,16105.83
2023-04-22T16:30:01.086Z,16370.42
2023-04-22T16:40:01.071Z,13115.83
2023-04-22T16:50:01.120Z,9554.58
2023-04-22T17:00:01.060Z,6657.50
2023-04-22T17:10:01.393Z,4242.08
2023-04-22T17:20:01.014Z,1990.83
2023-04-22T17:30:03.243Z,1290.00
2023-04-22T17:40:01.265Z,998.33
2023-04-22T17:50:01.009Z,724.58
2023-04-22T18:00:01.468Z,456.67
2023-04-22T18:10:01.013Z,100.00
2023-04-22T18:30:01.828Z,28.33
2023-04-22T18:40:02.076Z,6.23
2023-04-22T18:50:02.176Z,1.36
2023-04-22T19:00:00.993Z,0.23
2023-04-22T19:10:01.029Z,0.00
2023-04-22T19:20:01.837Z,0.00
2023-04-22T19:30:01.494Z,0.00
2023-04-22T19:40:01.430Z,0.00
2023-04-22T19:50:01.102Z,0.00
2023-04-22T20:00:01.213Z,0.00
2023-04-22T20:10:00.283Z,0.00
2023-04-22T20:20:01.078Z,0.00
2023-04-22T20:30:01.452Z,0.00
2023-04-22T20:40:03.291Z,0.00
2023-04-22T20:50:03.239Z,0.00
2023-04-22T21:00:03.450Z,0.00
2023-04-22T21:10:02.007Z,0.00
2023-04-22T21:20:03.784Z,0.00
2023-04-22T21:30:01.678Z,0.00
2023-04-22T21:40:02.719Z,0.00
2023-04-22T22:00:02.089Z,0.00
2023-04-22T22:10:03.755Z,0.00
2023-04-22T22:20:02.177Z,0.00
2023-04-22T22:30:01.292Z,0.00
2023-04-22T22:40:01.058Z,0.00
2023-04-22T22:50:03.103Z,0.00
2023-04-22T23:00:03.970Z,0.00
2023-04-22T23:10:03.223Z,0.00
2023-04-22T23:20:01.447Z,0.00
2023-04-22T23:30:01.103Z,0.00
2023-04-22T23:40:01.458Z,0.00
